createdAt,value
2023-05-19T00:01:16.745Z,1.83
2023-05-19T00:03:52.491Z,1.10
2023-05-19T00:06:22.927Z,1.60
2023-05-19T00:08:50.852Z,1.75
2023-05-19T00:11:18.056Z,1.85
2023-05-19T00:13:49.598Z,1.65
2023-05-19T00:16:17.325Z,1.55
2023-05-19T00:18:44.123Z,1.50
2023-05-19T00:21:10.951Z,1.40
2023-05-19T00:23:37.687Z,1.60
2023-05-19T00:26:04.511Z,1.33
2023-05-19T00:28:31.337Z,1.60
2023-05-19T00:30:59.424Z,2.05
2023-05-19T00:33:26.296Z,2.10
2023-05-19T00:35:53.045Z,1.40
2023-05-19T00:38:19.670Z,1.45
2023-05-19T00:40:46.452Z,1.33
2023-05-19T00:43:13.471Z,1.23
2023-05-19T00:45:40.739Z,2.38
2023-05-19T00:48:08.819Z,1.33
2023-05-19T00:50:35.655Z,1.70
2023-05-19T00:53:02.514Z,1.65
2023-05-19T00:55:31.788Z,1.65
2023-05-19T00:57:58.798Z,1.40
2023-05-19T01:00:25.585Z,2.20
2023-05-19T01:02:52.450Z,1.48
2023-05-19T01:05:20.980Z,1.60
2023-05-19T01:07:51.883Z,1.38
2023-05-19T01:10:18.937Z,1.25
2023-05-19T01:12:46.248Z,2.17
2023-05-19T01:15:13.950Z,1.60
2023-05-19T01:17:49.568Z,1.38
2023-05-19T01:20:20.204Z,2.15
2023-05-19T01:23:15.080Z,1.50
2023-05-19T01:26:19.364Z,1.90
2023-05-19T01:29:21.121Z,1.58
2023-05-19T01:31:50.528Z,1.67
2023-05-19T01:34:19.330Z,2.10
2023-05-19T01:36:49.818Z,1.70
2023-05-19T01:39:17.283Z,1.85
2023-05-19T01:41:45.854Z,2.00
2023-05-19T01:44:13.141Z,1.30
2023-05-19T01:46:41.981Z,1.80
2023-05-19T01:49:10.640Z,2.10
2023-05-19T01:51:37.510Z,1.52
2023-05-19T01:54:04.184Z,1.60
2023-05-19T01:56:38.326Z,2.63
2023-05-19T01:59:23.896Z,1.33
2023-05-19T02:01:53.617Z,1.33
2023-05-19T02:04:32.465Z,1.50
2023-05-19T02:07:09.001Z,1.90
2023-05-19T02:09:41.121Z,1.83
2023-05-19T02:12:15.044Z,1.63
2023-05-19T02:14:49.067Z,1.60
2023-05-19T02:17:17.923Z,1.67
2023-05-19T02:19:47.160Z,1.42
2023-05-19T02:22:13.988Z,1.65
2023-05-19T02:24:41.482Z,2.13
2023-05-19T02:27:08.210Z,1.90
2023-05-19T02:29:34.890Z,1.95
2023-05-19T02:32:02.117Z,1.40
2023-05-19T02:34:28.880Z,1.73
2023-05-19T02:36:57.060Z,1.60
2023-05-19T02:39:23.829Z,1.15
2023-05-19T02:41:50.585Z,2.35
2023-05-19T02:44:17.319Z,1.80
2023-05-19T02:46:44.181Z,2.05
2023-05-19T02:49:11.386Z,1.13
2023-05-19T02:51:38.123Z,1.38
2023-05-19T02:54:06.371Z,1.30
2023-05-19T02:56:33.177Z,1.65
2023-05-19T02:58:59.963Z,1.63
2023-05-19T03:01:26.649Z,1.85
2023-05-19T03:03:54.613Z,2.20
2023-05-19T03:06:23.617Z,2.00
2023-05-19T03:08:51.646Z,2.10
2023-05-19T03:11:19.756Z,1.80
2023-05-19T03:13:46.578Z,1.50
2023-05-19T03:16:14.082Z,1.67
2023-05-19T03:18:41.765Z,1.30
2023-05-19T03:21:08.573Z,1.85
2023-05-19T03:23:35.779Z,1.80
2023-05-19T03:26:03.121Z,2.00
2023-05-19T03:28:31.241Z,2.00
2023-05-19T03:30:58.082Z,2.38
2023-05-19T03:33:25.238Z,1.90
2023-05-19T03:35:53.063Z,1.77
2023-05-19T03:38:21.183Z,2.15
2023-05-19T03:40:48.209Z,2.05
2023-05-19T03:43:16.168Z,2.45
2023-05-19T03:45:44.354Z,2.15
2023-05-19T03:48:11.121Z,2.42
2023-05-19T03:50:38.174Z,2.00
2023-05-19T03:53:04.980Z,1.70
2023-05-19T03:55:31.823Z,1.77
2023-05-19T03:57:58.547Z,1.52
2023-05-19T04:00:25.334Z,1.95
2023-05-19T04:02:53.655Z,2.20
2023-05-19T04:05:20.587Z,2.00
2023-05-19T04:07:47.513Z,2.00
2023-05-19T04:10:14.597Z,1.63
2023-05-19T04:12:41.337Z,1.90
2023-05-19T04:15:11.487Z,2.05
2023-05-19T04:17:38.567Z,1.63
2023-05-19T04:20:07.776Z,1.92
2023-05-19T04:22:34.460Z,2.10
2023-05-19T04:25:01.764Z,2.28
2023-05-19T04:27:30.005Z,2.22
2023-05-19T04:29:58.116Z,2.42
2023-05-19T04:32:25.706Z,2.92
2023-05-19T04:34:52.870Z,2.50
2023-05-19T04:37:21.100Z,2.30
2023-05-19T04:39:48.428Z,1.80
2023-05-19T04:42:19.161Z,2.45
2023-05-19T04:44:46.000Z,2.17
2023-05-19T04:47:13.360Z,2.55
2023-05-19T04:49:40.132Z,2.28
2023-05-19T04:52:07.616Z,2.25
2023-05-19T04:54:36.171Z,2.65
2023-05-19T04:57:02.946Z,1.80
2023-05-19T04:59:29.895Z,2.38
2023-05-19T05:01:56.757Z,2.38
2023-05-19T05:04:23.924Z,2.00
2023-05-19T05:06:50.814Z,1.85
2023-05-19T05:09:19.079Z,2.53
2023-05-19T05:11:47.818Z,2.22
2023-05-19T05:14:16.635Z,2.25
2023-05-19T05:16:44.111Z,1.77
2023-05-19T05:19:11.563Z,2.00
2023-05-19T05:21:38.772Z,2.22
2023-05-19T05:24:06.397Z,2.20
2023-05-19T05:26:33.938Z,1.80
2023-05-19T05:29:02.064Z,2.20
2023-05-19T05:31:28.926Z,1.70
2023-05-19T05:33:56.572Z,1.42
2023-05-19T05:36:23.228Z,2.28
2023-05-19T05:38:50.147Z,2.40
2023-05-19T05:41:16.876Z,1.52
2023-05-19T05:43:43.577Z,1.40
2023-05-19T05:46:11.732Z,1.80
2023-05-19T05:48:38.974Z,1.80
2023-05-19T05:51:06.578Z,2.03
2023-05-19T05:53:37.059Z,1.52
2023-05-19T05:56:05.732Z,1.52
2023-05-19T05:58:33.066Z,1.52
2023-05-19T06:01:00.309Z,2.00
2023-05-19T06:03:28.602Z,1.80
2023-05-19T06:05:55.492Z,1.83
2023-05-19T06:08:22.340Z,1.88
2023-05-19T06:10:49.129Z,1.73
2023-05-19T06:13:18.800Z,1.50
2023-05-19T06:15:45.619Z,2.10
2023-05-19T06:18:12.433Z,1.85
2023-05-19T06:20:40.867Z,2.33
2023-05-19T06:23:08.472Z,1.67
2023-05-19T06:25:35.311Z,1.98
2023-05-19T06:28:02.222Z,1.75
2023-05-19T06:30:29.065Z,1.60
2023-05-19T06:32:56.714Z,2.15
2023-05-19T06:35:23.585Z,1.48
2023-05-19T06:37:53.102Z,1.40
2023-05-19T06:40:19.787Z,1.48
2023-05-19T06:42:46.663Z,1.80
2023-05-19T06:45:13.396Z,1.65
2023-05-19T06:47:44.476Z,1.33
2023-05-19T06:50:11.319Z,1.85
2023-05-19T06:52:38.057Z,1.60
2023-05-19T06:55:07.212Z,1.67
2023-05-19T06:57:33.908Z,1.98
2023-05-19T07:00:00.879Z,1.48
2023-05-19T07:02:27.827Z,2.00
2023-05-19T07:04:54.761Z,1.73
2023-05-19T07:07:21.588Z,1.77
2023-05-19T07:09:48.418Z,1.98
2023-05-19T07:12:16.625Z,1.98
2023-05-19T07:14:43.628Z,1.85
2023-05-19T07:17:10.435Z,2.38
2023-05-19T07:19:37.241Z,2.20
2023-05-19T07:22:04.376Z,1.77
2023-05-19T07:24:31.616Z,1.90
2023-05-19T07:26:58.648Z,1.92
2023-05-19T07:29:27.211Z,2.35
2023-05-19T07:31:57.826Z,1.67
2023-05-19T07:34:25.094Z,1.80
2023-05-19T07:36:52.148Z,2.28
2023-05-19T07:39:19.449Z,1.75
2023-05-19T07:41:52.695Z,1.13
2023-05-19T07:44:19.536Z,1.73
2023-05-19T07:46:47.785Z,1.60
2023-05-19T07:49:14.521Z,1.52
2023-05-19T07:51:42.182Z,2.03
2023-05-19T07:54:08.984Z,1.42
2023-05-19T07:56:36.009Z,1.52
2023-05-19T07:59:04.016Z,1.58
2023-05-19T08:01:31.063Z,1.50
2023-05-19T08:03:59.458Z,1.77
2023-05-19T08:06:26.388Z,1.42
2023-05-19T08:08:54.289Z,1.25
2023-05-19T08:11:21.594Z,1.88
2023-05-19T08:13:49.354Z,1.15
2023-05-19T08:16:16.281Z,1.40
2023-05-19T08:18:43.356Z,1.73
2023-05-19T08:21:11.799Z,1.30
2023-05-19T08:23:38.946Z,1.25
2023-05-19T08:26:05.801Z,1.80
2023-05-19T08:28:32.612Z,1.63
2023-05-19T08:30:59.421Z,1.33
2023-05-19T08:33:26.225Z,1.45
2023-05-19T08:35:55.388Z,1.20
2023-05-19T08:38:23.753Z,1.40
2023-05-19T08:40:50.596Z,1.10
2023-05-19T08:43:17.781Z,1.30
2023-05-19T08:45:48.488Z,1.20
2023-05-19T08:48:17.420Z,1.10
2023-05-19T08:50:53.036Z,2.15
2023-05-19T08:53:33.111Z,1.08
2023-05-19T08:56:11.330Z,1.60
2023-05-19T08:58:40.270Z,1.05
2023-05-19T09:01:07.997Z,1.15
2023-05-19T09:03:39.283Z,1.13
2023-05-19T09:06:08.639Z,0.90
2023-05-19T09:08:36.603Z,0.80
2023-05-19T09:11:04.940Z,0.90
2023-05-19T09:13:31.667Z,0.95
2023-05-19T09:15:58.714Z,1.02
2023-05-19T09:18:26.736Z,0.77
2023-05-19T09:21:00.262Z,0.90
2023-05-19T09:23:32.785Z,0.90
2023-05-19T09:26:03.934Z,0.77
2023-05-19T09:28:33.537Z,1.25
2023-05-19T09:31:01.449Z,1.13
2023-05-19T09:33:28.667Z,1.15
2023-05-19T09:35:58.805Z,0.95
2023-05-19T09:38:26.099Z,0.80
2023-05-19T09:40:53.403Z,0.82
2023-05-19T09:43:21.663Z,1.02
2023-05-19T09:45:55.516Z,0.50
2023-05-19T09:48:22.299Z,1.17
2023-05-19T09:50:51.666Z,1.02
2023-05-19T09:53:18.682Z,1.13
2023-05-19T09:55:45.808Z,0.90
2023-05-19T09:58:16.709Z,0.90
2023-05-19T10:00:43.788Z,1.02
2023-05-19T10:03:13.027Z,0.60
2023-05-19T10:05:41.755Z,1.08
2023-05-19T10:08:10.583Z,0.80
2023-05-19T10:10:38.190Z,1.00
2023-05-19T10:13:06.552Z,1.10
2023-05-19T10:15:46.707Z,1.13
2023-05-19T10:18:26.822Z,0.60
2023-05-19T10:20:54.823Z,1.08
2023-05-19T10:23:22.659Z,0.68
2023-05-19T10:25:53.039Z,0.60
2023-05-19T10:28:23.642Z,0.70
2023-05-19T10:30:54.648Z,1.20
2023-05-19T10:33:37.292Z,1.27
2023-05-19T10:36:31.196Z,0.95
2023-05-19T10:39:02.697Z,0.70
2023-05-19T10:41:40.177Z,0.80
2023-05-19T10:44:16.386Z,1.02
2023-05-19T10:46:47.006Z,1.00
2023-05-19T10:49:22.638Z,0.80
2023-05-19T10:51:50.129Z,0.80
2023-05-19T10:54:18.540Z,1.38
2023-05-19T10:56:48.042Z,0.95
2023-05-19T10:59:32.538Z,1.10
2023-05-19T11:02:04.240Z,0.90
2023-05-19T11:04:50.933Z,1.02
2023-05-19T11:07:22.495Z,0.63
2023-05-19T11:09:52.224Z,1.00
2023-05-19T11:12:24.771Z,0.80
2023-05-19T11:14:55.121Z,1.10
2023-05-19T11:17:23.716Z,1.17
2023-05-19T11:19:57.143Z,1.00
2023-05-19T11:22:26.084Z,1.10
2023-05-19T11:24:55.976Z,0.75
2023-05-19T11:27:28.206Z,0.98
2023-05-19T11:29:57.220Z,0.77
2023-05-19T11:32:28.080Z,1.20
2023-05-19T11:34:57.908Z,0.98
2023-05-19T11:37:24.922Z,1.20
2023-05-19T11:39:52.971Z,0.80
2023-05-19T11:42:20.224Z,1.13
2023-05-19T11:44:47.110Z,1.00
2023-05-19T11:47:14.704Z,0.90
2023-05-19T11:49:44.241Z,1.30
2023-05-19T11:52:12.851Z,0.80
2023-05-19T11:54:41.917Z,1.10
2023-05-19T11:57:09.722Z,1.02
2023-05-19T11:59:39.296Z,0.90
2023-05-19T12:02:17.314Z,0.80
2023-05-19T12:04:44.211Z,1.00
2023-05-19T12:07:13.747Z,1.08
2023-05-19T12:09:40.660Z,0.70
2023-05-19T12:12:08.012Z,0.90
2023-05-19T12:14:35.990Z,1.10
2023-05-19T12:17:11.812Z,0.90
2023-05-19T12:19:39.045Z,1.13
2023-05-19T12:22:07.507Z,1.10
2023-05-19T12:24:36.483Z,0.80
2023-05-19T12:27:10.232Z,0.80
2023-05-19T12:29:40.956Z,1.10
2023-05-19T12:32:09.144Z,1.17
2023-05-19T12:34:37.383Z,1.00
2023-05-19T12:37:04.632Z,1.05
2023-05-19T12:39:31.564Z,1.20
2023-05-19T12:42:03.507Z,0.65
2023-05-19T12:44:31.458Z,1.40
2023-05-19T12:46:59.595Z,0.95
2023-05-19T12:49:26.542Z,0.82
2023-05-19T12:51:53.541Z,1.02
2023-05-19T12:54:21.137Z,1.17
2023-05-19T12:56:52.061Z,0.98
2023-05-19T12:59:54.920Z,1.05
2023-05-19T13:02:12.182Z,1.00
2023-05-19T13:04:39.054Z,0.75
2023-05-19T13:07:06.087Z,1.20
2023-05-19T13:09:35.251Z,0.85
2023-05-19T13:12:02.218Z,1.00
2023-05-19T13:14:30.419Z,1.00
2023-05-19T13:16:57.222Z,1.15
2023-05-19T13:19:25.701Z,1.10
2023-05-19T13:21:53.000Z,0.75
2023-05-19T13:24:19.804Z,0.90
2023-05-19T13:26:48.119Z,1.00
2023-05-19T13:29:15.184Z,1.23
2023-05-19T13:31:45.413Z,1.08
2023-05-19T13:34:12.136Z,0.80
2023-05-19T13:36:39.310Z,0.90
2023-05-19T13:39:06.074Z,0.63
2023-05-19T13:41:41.918Z,0.90
2023-05-19T13:44:08.753Z,0.70
2023-05-19T13:46:44.671Z,0.77
2023-05-19T13:49:13.487Z,0.90
2023-05-19T13:51:45.945Z,0.90
2023-05-19T13:54:12.829Z,1.50
2023-05-19T13:56:39.650Z,1.17
2023-05-19T13:59:06.786Z,1.20
2023-05-19T14:01:33.990Z,0.98
2023-05-19T14:04:01.280Z,1.00
2023-05-19T14:06:29.582Z,1.23
2023-05-19T14:08:56.462Z,1.10
2023-05-19T14:11:23.181Z,1.05
2023-05-19T14:13:52.558Z,0.82
2023-05-19T14:16:21.971Z,0.90
2023-05-19T14:18:49.062Z,0.90
2023-05-19T14:21:15.977Z,0.95
2023-05-19T14:23:44.490Z,0.80
2023-05-19T14:26:12.653Z,0.60
2023-05-19T14:28:39.789Z,1.05
2023-05-19T14:31:11.468Z,0.65
2023-05-19T14:33:39.639Z,0.93
2023-05-19T14:36:07.448Z,1.00
2023-05-19T14:38:34.437Z,1.08
2023-05-19T14:41:03.076Z,1.20
2023-05-19T14:43:30.040Z,1.02
2023-05-19T14:45:57.037Z,0.70
2023-05-19T14:48:24.032Z,0.90
2023-05-19T14:50:50.974Z,0.85
2023-05-19T14:53:17.745Z,0.70
2023-05-19T14:55:44.630Z,1.13
2023-05-19T14:58:27.385Z,1.15
2023-05-19T15:00:57.693Z,0.95
2023-05-19T15:03:24.982Z,1.08
2023-05-19T15:05:51.852Z,0.80
2023-05-19T15:08:18.787Z,1.25
2023-05-19T15:10:48.798Z,1.10
2023-05-19T15:13:19.047Z,0.80
2023-05-19T15:15:46.149Z,1.63
2023-05-19T15:18:13.357Z,0.93
2023-05-19T15:20:40.544Z,1.00
2023-05-19T15:23:07.311Z,0.90
2023-05-19T15:25:34.168Z,1.30
2023-05-19T15:28:01.890Z,0.90
2023-05-19T15:30:30.045Z,0.95
2023-05-19T15:32:56.824Z,0.70
2023-05-19T15:35:23.869Z,1.25
2023-05-19T15:37:50.998Z,0.85
2023-05-19T15:40:18.102Z,0.80
2023-05-19T15:42:44.979Z,1.13
2023-05-19T15:45:11.866Z,1.23
2023-05-19T15:47:39.992Z,1.02
2023-05-19T15:50:08.156Z,1.10
2023-05-19T15:52:35.022Z,0.90
2023-05-19T15:55:04.305Z,1.45
2023-05-19T15:57:32.402Z,1.30
2023-05-19T15:59:59.213Z,1.20
2023-05-19T16:02:26.370Z,0.93
2023-05-19T16:04:56.217Z,1.10
2023-05-19T16:07:23.865Z,1.00
2023-05-19T16:09:50.711Z,1.10
2023-05-19T16:12:17.678Z,1.38
2023-05-19T16:14:44.508Z,1.40
2023-05-19T16:17:14.042Z,1.30
2023-05-19T16:19:40.893Z,0.93
2023-05-19T16:22:09.146Z,1.02
2023-05-19T16:24:35.947Z,1.00
2023-05-19T16:27:02.805Z,1.10
2023-05-19T16:29:29.547Z,1.15
2023-05-19T16:31:56.305Z,1.17
2023-05-19T16:34:23.143Z,1.00
2023-05-19T16:36:50.148Z,1.30
2023-05-19T16:39:18.464Z,0.60
2023-05-19T16:41:45.289Z,1.23
2023-05-19T16:44:14.372Z,0.90
2023-05-19T16:46:41.258Z,1.05
2023-05-19T16:49:08.033Z,0.90
2023-05-19T16:51:34.809Z,0.90
2023-05-19T16:54:01.763Z,0.98
2023-05-19T16:56:29.961Z,1.20
2023-05-19T16:58:56.777Z,1.00
2023-05-19T17:01:23.687Z,1.00
2023-05-19T17:03:50.606Z,0.90
2023-05-19T17:06:17.579Z,1.00
2023-05-19T17:08:44.606Z,0.65
2023-05-19T17:11:11.466Z,1.25
2023-05-19T17:13:39.717Z,0.70
2023-05-19T17:16:07.340Z,0.70
2023-05-19T17:18:34.050Z,0.90
2023-05-19T17:21:03.921Z,0.73
2023-05-19T17:23:31.662Z,1.10
2023-05-19T17:25:58.615Z,1.00
2023-05-19T17:28:25.547Z,0.77
2023-05-19T17:30:53.719Z,1.38
2023-05-19T17:33:20.892Z,1.15
2023-05-19T17:35:47.824Z,1.20
2023-05-19T17:38:14.601Z,2.38
2023-05-19T17:40:42.177Z,1.30
2023-05-19T17:43:09.184Z,1.00
2023-05-19T17:45:37.383Z,1.20
2023-05-19T17:48:06.954Z,1.10
2023-05-19T17:50:34.228Z,1.08
2023-05-19T17:53:01.775Z,1.50
2023-05-19T17:55:31.048Z,1.15
2023-05-19T17:57:58.352Z,0.90
2023-05-19T18:00:26.255Z,0.90
2023-05-19T18:02:53.947Z,1.25
2023-05-19T18:05:23.226Z,1.50
2023-05-19T18:07:50.485Z,1.40
2023-05-19T18:10:18.026Z,1.30
2023-05-19T18:12:44.916Z,1.00
2023-05-19T18:15:12.207Z,0.65
2023-05-19T18:17:39.039Z,0.80
2023-05-19T18:20:07.789Z,1.00
2023-05-19T18:22:36.077Z,0.95
2023-05-19T18:25:02.810Z,0.93
2023-05-19T18:27:30.033Z,0.88
2023-05-19T18:29:56.820Z,0.90
2023-05-19T18:32:23.631Z,0.90
2023-05-19T18:34:52.108Z,1.00
2023-05-19T18:37:18.929Z,0.77
2023-05-19T18:39:47.093Z,0.90
2023-05-19T18:42:13.733Z,0.70
2023-05-19T18:44:42.237Z,1.10
2023-05-19T18:47:09.130Z,0.80
2023-05-19T18:49:35.902Z,0.85
2023-05-19T18:52:02.650Z,0.65
2023-05-19T18:54:29.430Z,0.65
2023-05-19T18:56:57.547Z,0.82
2023-05-19T18:59:25.873Z,0.95
2023-05-19T19:01:53.249Z,0.60
2023-05-19T19:04:20.599Z,0.57
2023-05-19T19:06:48.445Z,0.85
2023-05-19T19:09:15.546Z,0.75
2023-05-19T19:11:42.430Z,0.80
2023-05-19T19:14:10.918Z,0.90
2023-05-19T19:16:37.856Z,0.80
2023-05-19T19:19:04.792Z,0.57
2023-05-19T19:21:32.083Z,0.93
2023-05-19T19:23:59.046Z,0.65
2023-05-19T19:26:31.893Z,0.95
2023-05-19T19:28:58.936Z,1.15
2023-05-19T19:31:28.857Z,0.80
2023-05-19T19:34:02.997Z,0.85
2023-05-19T19:36:30.410Z,0.57
2023-05-19T19:38:57.277Z,0.85
2023-05-19T19:41:25.406Z,0.60
2023-05-19T19:43:53.138Z,0.60
2023-05-19T19:46:20.319Z,0.93
2023-05-19T19:48:48.677Z,1.02
2023-05-19T19:51:15.716Z,1.10
2023-05-19T19:53:42.761Z,1.10
2023-05-19T19:56:09.829Z,0.88
2023-05-19T19:58:37.089Z,0.90
2023-05-19T20:01:04.438Z,0.93
2023-05-19T20:03:33.405Z,1.13
2023-05-19T20:06:03.734Z,0.95
2023-05-19T20:08:30.779Z,0.70
2023-05-19T20:10:57.676Z,1.17
2023-05-19T20:13:24.481Z,0.80
2023-05-19T20:15:51.628Z,0.60
2023-05-19T20:18:18.479Z,0.77
2023-05-19T20:20:45.608Z,1.10
2023-05-19T20:23:16.220Z,0.80
2023-05-19T20:25:58.445Z,0.73
2023-05-19T20:28:31.122Z,0.80
2023-05-19T20:30:57.869Z,0.70
2023-05-19T20:33:24.625Z,0.70
2023-05-19T20:35:51.445Z,0.40
2023-05-19T20:38:19.955Z,0.93
2023-05-19T20:40:47.720Z,0.80
2023-05-19T20:43:14.610Z,0.75
2023-05-19T20:45:43.110Z,0.90
2023-05-19T20:48:11.392Z,0.85
2023-05-19T20:50:39.443Z,1.05
2023-05-19T20:53:07.401Z,0.55
2023-05-19T20:55:38.591Z,0.60
2023-05-19T20:58:05.528Z,0.68
2023-05-19T21:00:32.647Z,1.20
2023-05-19T21:03:00.229Z,0.68
2023-05-19T21:05:27.204Z,0.85
2023-05-19T21:07:54.041Z,1.00
2023-05-19T21:10:20.977Z,0.73
2023-05-19T21:12:50.601Z,0.50
2023-05-19T21:15:17.377Z,0.88
2023-05-19T21:17:44.260Z,0.70
2023-05-19T21:20:11.691Z,0.90
2023-05-19T21:22:38.416Z,1.02
2023-05-19T21:25:06.178Z,1.08
2023-05-19T21:27:35.482Z,0.88
2023-05-19T21:30:04.289Z,0.65
2023-05-19T21:32:31.097Z,0.52
2023-05-19T21:34:58.019Z,1.17
2023-05-19T21:37:24.868Z,0.88
2023-05-19T21:39:51.568Z,0.90
2023-05-19T21:42:18.404Z,0.52
2023-05-19T21:44:45.191Z,0.77
2023-05-19T21:47:13.243Z,1.48
2023-05-19T21:49:40.703Z,1.50
2023-05-19T21:52:08.007Z,0.85
2023-05-19T21:54:35.133Z,0.80
2023-05-19T21:57:02.375Z,1.10
2023-05-19T21:59:29.211Z,1.00
2023-05-19T22:01:55.901Z,1.10
2023-05-19T22:04:24.095Z,0.98
2023-05-19T22:06:51.073Z,1.00
2023-05-19T22:09:18.066Z,1.00
2023-05-19T22:11:44.924Z,1.00
2023-05-19T22:14:12.768Z,1.10
2023-05-19T22:16:39.694Z,1.30
2023-05-19T22:19:06.507Z,1.30
2023-05-19T22:21:34.592Z,0.90
2023-05-19T22:24:01.321Z,0.90
2023-05-19T22:26:28.169Z,0.98
2023-05-19T22:28:55.361Z,1.00
2023-05-19T22:31:22.466Z,1.50
2023-05-19T22:33:49.304Z,1.00
2023-05-19T22:36:16.677Z,1.25
2023-05-19T22:38:44.693Z,1.02
2023-05-19T22:41:11.482Z,1.25
2023-05-19T22:43:38.212Z,1.63
2023-05-19T22:46:05.428Z,1.40
2023-05-19T22:48:32.105Z,1.30
2023-05-19T22:50:58.952Z,1.70
2023-05-19T22:53:25.696Z,1.13
2023-05-19T22:55:53.850Z,1.00
2023-05-19T22:58:20.603Z,1.52
2023-05-19T23:00:47.287Z,1.63
2023-05-19T23:03:14.017Z,1.00
2023-05-19T23:05:40.957Z,1.15
2023-05-19T23:08:07.752Z,1.33
2023-05-19T23:10:34.533Z,1.45
2023-05-19T23:13:02.536Z,1.10
2023-05-19T23:15:29.290Z,0.80
2023-05-19T23:17:56.233Z,1.30
2023-05-19T23:20:22.988Z,1.40
2023-05-19T23:22:49.667Z,1.63
2023-05-19T23:25:16.908Z,1.10
2023-05-19T23:27:43.662Z,1.30
2023-05-19T23:30:12.210Z,1.17
2023-05-19T23:32:40.859Z,1.42
2023-05-19T23:35:12.457Z,1.35
2023-05-19T23:40:07.522Z,1.15
2023-05-19T23:42:34.435Z,1.63
2023-05-19T23:45:01.129Z,1.00
2023-05-19T23:47:29.279Z,1.10
2023-05-19T23:49:56.257Z,1.10
2023-05-19T23:52:23.354Z,1.67
2023-05-19T23:54:50.428Z,1.05
2023-05-19T23:57:17.156Z,1.50
2023-05-19T23:59:44.281Z,1.55
